Time;durP1;ratioP1;P1;durP2;ratioP2;P2;SDS_P1;SDS_P2;PMS_P1;PMS_P2;Temp;Humidity;BMP_temperature;BMP_pressure;BME280_temperature;BME280_humidity;BME280_pressure;Samples;Min_cycle;Max_cycle;Signal;HPM_P1;HPM_P2
2022/10/01 00:02:28;;;;;;;0.00;0.00;;;;;;;;;;5074196;28;20476;-82
2022/10/01 00:04:55;;;;;;;0.00;0.00;;;;;;;;;;5057463;28;20043;-82
2022/10/01 00:07:21;;;;;;;0.00;0.00;;;;;;;;;;5074134;28;20051;-82
2022/10/01 00:09:47;;;;;;;0.00;0.00;;;;;;;;;;5057618;28;20036;-82
2022/10/01 00:12:15;;;;;;;0.00;0.00;;;;;;;;;;5057327;28;20492;-82
2022/10/01 00:14:41;;;;;;;0.00;0.00;;;;;;;;;;5057098;28;20076;-82
2022/10/01 00:17:07;;;;;;;0.00;0.00;;;;;;;;;;5073925;28;20521;-82
2022/10/01 00:19:33;;;;;;;0.00;0.00;;;;;;;;;;5073880;28;20119;-82
2022/10/01 00:22:02;;;;;;;0.00;0.00;;;;;;;;;;5073894;28;20044;-81
2022/10/01 00:24:28;;;;;;;0.00;0.00;;;;;;;;;;5073541;28;20479;-81
2022/10/01 00:26:54;;;;;;;0.00;0.00;;;;;;;;;;5073860;28;20048;-82
2022/10/01 00:29:20;;;;;;;0.00;0.00;;;;;;;;;;5073655;28;20041;-81
2022/10/01 00:31:46;;;;;;;0.00;0.00;;;;;;;;;;5073650;28;20518;-81
2022/10/01 00:34:13;;;;;;;0.00;0.00;;;;;;;;;;5056970;28;20118;-81
2022/10/01 00:36:41;;;;;;;0.00;0.00;;;;;;;;;;5056501;28;20051;-81
2022/10/01 00:39:07;;;;;;;0.00;0.00;;;;;;;;;;5055896;28;20043;-81
2022/10/01 00:41:33;;;;;;;0.00;0.00;;;;;;;;;;5073765;28;20040;-81
2022/10/01 00:44:19;;;;;;;0.00;0.00;;;;;;;;;;5074336;28;20044;-81
2022/10/01 00:46:45;;;;;;;0.00;0.00;;;;;;;;;;5073067;28;20040;-81
2022/10/01 00:49:17;;;;;;;0.00;0.00;;;;;;;;;;5073215;28;20051;-81
2022/10/01 00:51:45;;;;;;;0.00;0.00;;;;;;;;;;5056928;28;20048;-81
2022/10/01 00:54:13;;;;;;;0.00;0.00;;;;;;;;;;5073053;28;20045;-81
2022/10/01 00:56:40;;;;;;;0.00;0.00;;;;;;;;;;5073211;28;20046;-81
2022/10/01 00:59:06;;;;;;;0.00;0.00;;;;;;;;;;5056285;28;20518;-81
2022/10/01 01:01:34;;;;;;;0.00;0.00;;;;;;;;;;5056492;28;20136;-81
2022/10/01 01:04:00;;;;;;;0.00;0.00;;;;;;;;;;5056423;28;20043;-81
2022/10/01 01:06:27;;;;;;;0.00;0.00;;;;;;;;;;5074572;28;20040;-82
2022/10/01 01:08:54;;;;;;;0.00;0.00;;;;;;;;;;5073067;28;20041;-81
2022/10/01 01:11:30;;;;;;;0.00;0.00;;;;;;;;;;5073238;28;20499;-81
2022/10/01 01:14:02;;;;;;;0.00;0.00;;;;;;;;;;5055956;28;20051;-81
2022/10/01 01:16:34;;;;;;;0.10;0.10;;;;;;;;;;5056058;28;20040;-81
2022/10/01 01:19:09;;;;;;;0.00;0.00;;;;;;;;;;5072967;28;20037;-81
2022/10/01 01:21:41;;;;;;;0.00;0.00;;;;;;;;;;5073147;28;20052;-82
2022/10/01 01:24:13;;;;;;;0.00;0.00;;;;;;;;;;5072337;28;20518;-81
2022/10/01 01:26:45;;;;;;;0.00;0.00;;;;;;;;;;5072618;28;20040;-81
2022/10/01 01:29:19;;;;;;;0.00;0.00;;;;;;;;;;5055768;28;20048;-81
2022/10/01 01:31:46;;;;;;;0.00;0.00;;;;;;;;;;5055988;28;20040;-81
2022/10/01 01:34:14;;;;;;;0.00;0.00;;;;;;;;;;5073787;28;20411;-81
2022/10/01 01:36:44;;;;;;;0.00;0.00;;;;;;;;;;5072511;28;20045;-81
2022/10/01 01:39:11;;;;;;;0.00;0.00;;;;;;;;;;5072503;28;20041;-81
2022/10/01 01:41:40;;;;;;;0.00;0.00;;;;;;;;;;5055933;28;20160;-81
2022/10/01 01:44:09;;;;;;;0.00;0.00;;;;;;;;;;5072306;28;20065;-81
2022/10/01 01:46:37;;;;;;;0.00;0.00;;;;;;;;;;5072268;28;20057;-81
2022/10/01 01:49:04;;;;;;;0.00;0.00;;;;;;;;;;5071744;28;20043;-81
2022/10/01 01:51:33;;;;;;;0.00;0.00;;;;;;;;;;5072334;28;20041;-80
2022/10/01 01:53:59;;;;;;;0.00;0.00;;;;;;;;;;5071702;28;20033;-81
2022/10/01 01:56:25;;;;;;;0.00;0.00;;;;;;;;;;5072206;28;20115;-82
2022/10/01 01:58:57;;;;;;;0.00;0.00;;;;;;;;;;5071835;28;20036;-81
2022/10/01 02:01:39;;;;;;;0.00;0.00;;;;;;;;;;5055796;28;20044;-81
2022/10/01 02:04:14;;;;;;;0.00;0.00;;;;;;;;;;5071708;28;20042;-81
2022/10/01 02:06:52;;;;;;;0.00;0.00;;;;;;;;;;5072252;28;20045;-81
2022/10/01 02:09:54;;;;;;;0.52;0.10;;;;;;;;;;5071766;28;20076;-81
2022/10/01 02:12:34;;;;;;;0.00;0.00;;;;;;;;;;4975947;28;20050;-82
2022/10/01 02:15:00;;;;;;;0.00;0.00;;;;;;;;;;5061201;28;20139;-82
2022/10/01 02:17:32;;;;;;;0.00;0.00;;;;;;;;;;5054998;28;20171;-82
2022/10/01 02:20:01;;;;;;;0.00;0.00;;;;;;;;;;5071905;28;20373;-81
2022/10/01 02:22:39;;;;;;;0.00;0.00;;;;;;;;;;5071828;28;20055;-82
2022/10/01 02:25:06;;;;;;;0.00;0.00;;;;;;;;;;5071357;28;20044;-82
2022/10/01 02:27:43;;;;;;;0.00;0.00;;;;;;;;;;5071614;28;20040;-81
2022/10/01 02:30:10;;;;;;;0.00;0.00;;;;;;;;;;5071468;28;20125;-81
2022/10/01 02:32:38;;;;;;;0.00;0.00;;;;;;;;;;5071612;28;20048;-81
2022/10/01 02:35:06;;;;;;;0.00;0.00;;;;;;;;;;5071313;28;20064;-81
2022/10/01 02:37:32;;;;;;;0.00;0.00;;;;;;;;;;5071440;28;20071;-81
2022/10/01 02:39:59;;;;;;;0.00;0.00;;;;;;;;;;5072451;28;20484;-80
2022/10/01 02:42:26;;;;;;;0.00;0.00;;;;;;;;;;5071449;28;20036;-81
2022/10/01 02:44:53;;;;;;;0.00;0.00;;;;;;;;;;5071052;28;20114;-81
2022/10/01 02:47:19;;;;;;;0.00;0.00;;;;;;;;;;5071422;28;20086;-81
2022/10/01 02:49:47;;;;;;;0.00;0.00;;;;;;;;;;5071326;28;20488;-81
2022/10/01 02:52:21;;;;;;;0.00;0.00;;;;;;;;;;5071429;28;20040;-81
2022/10/01 02:54:53;;;;;;;0.00;0.00;;;;;;;;;;5071287;28;20040;-81
2022/10/01 02:57:23;;;;;;;0.00;0.00;;;;;;;;;;5071226;28;20037;-81
2022/10/01 02:59:50;;;;;;;0.00;0.00;;;;;;;;;;5071291;28;20032;-81
2022/10/01 03:02:16;;;;;;;0.00;0.00;;;;;;;;;;5074711;28;20189;-81
2022/10/01 03:04:42;;;;;;;0.00;0.00;;;;;;;;;;5075260;28;20044;-81
2022/10/01 03:07:08;;;;;;;0.00;0.00;;;;;;;;;;5075507;28;20391;-81
2022/10/01 03:09:38;;;;;;;0.00;0.00;;;;;;;;;;5058543;28;20048;-82
2022/10/01 03:12:05;;;;;;;0.00;0.00;;;;;;;;;;5058617;28;20367;-82
2022/10/01 03:14:32;;;;;;;0.00;0.00;;;;;;;;;;5058083;28;20048;-82
2022/10/01 03:16:58;;;;;;;0.00;0.00;;;;;;;;;;5075083;28;20426;-82
2022/10/01 03:19:24;;;;;;;0.00;0.00;;;;;;;;;;5074742;28;20052;-82
2022/10/01 03:21:50;;;;;;;0.00;0.00;;;;;;;;;;5075009;28;20438;-82
2022/10/01 03:24:16;;;;;;;0.00;0.00;;;;;;;;;;5074971;28;20041;-82
2022/10/01 03:26:42;;;;;;;0.00;0.00;;;;;;;;;;5074697;28;20079;-83
2022/10/01 03:29:08;;;;;;;0.00;0.00;;;;;;;;;;5058131;28;20049;-82
2022/10/01 03:31:35;;;;;;;0.00;0.00;;;;;;;;;;5076061;28;20049;-82
2022/10/01 03:34:01;;;;;;;0.00;0.00;;;;;;;;;;5057818;28;20044;-81
2022/10/01 03:36:27;;;;;;;0.00;0.00;;;;;;;;;;5074501;28;20093;-82
2022/10/01 03:38:53;;;;;;;0.00;0.00;;;;;;;;;;5076181;28;20392;-81
2022/10/01 03:41:19;;;;;;;0.00;0.00;;;;;;;;;;5074440;28;20070;-81
2022/10/01 03:43:45;;;;;;;0.00;0.00;;;;;;;;;;5074561;28;20055;-81
2022/10/01 03:46:11;;;;;;;0.00;0.00;;;;;;;;;;5074415;28;20411;-82
2022/10/01 03:48:37;;;;;;;0.00;0.00;;;;;;;;;;5074497;28;20103;-82
2022/10/01 03:51:04;;;;;;;0.00;0.00;;;;;;;;;;5057870;28;20505;-81
2022/10/01 03:53:30;;;;;;;0.00;0.00;;;;;;;;;;5074289;28;20040;-81
2022/10/01 03:55:57;;;;;;;0.00;0.00;;;;;;;;;;5074066;28;20093;-81
2022/10/01 03:58:23;;;;;;;0.00;0.00;;;;;;;;;;5075620;28;20446;-81
2022/10/01 04:00:49;;;;;;;0.00;0.00;;;;;;;;;;5074150;28;20440;-81
2022/10/01 04:03:15;;;;;;;0.00;0.00;;;;;;;;;;5074166;28;20046;-82
2022/10/01 04:05:42;;;;;;;0.00;0.00;;;;;;;;;;5073935;28;20395;-82
2022/10/01 04:08:08;;;;;;;0.00;0.00;;;;;;;;;;5074247;28;20215;-80
2022/10/01 04:10:34;;;;;;;0.00;0.00;;;;;;;;;;5057265;28;20047;-82
2022/10/01 04:13:00;;;;;;;0.00;0.00;;;;;;;;;;5073849;28;20040;-82
2022/10/01 04:15:27;;;;;;;0.00;0.00;;;;;;;;;;5073701;28;20086;-83
2022/10/01 04:17:53;;;;;;;0.00;0.00;;;;;;;;;;5057481;28;20051;-82
2022/10/01 04:20:19;;;;;;;0.00;0.00;;;;;;;;;;5074009;28;20471;-81
2022/10/01 04:22:45;;;;;;;0.00;0.00;;;;;;;;;;5073986;28;20036;-82
2022/10/01 04:25:12;;;;;;;0.00;0.00;;;;;;;;;;5073503;28;20043;-82
2022/10/01 04:27:41;;;;;;;0.00;0.00;;;;;;;;;;5073832;28;20391;-82
2022/10/01 04:30:08;;;;;;;0.00;0.00;;;;;;;;;;5056949;28;20086;-82
2022/10/01 04:32:34;;;;;;;0.00;0.00;;;;;;;;;;5073752;28;20043;-81
2022/10/01 04:35:03;;;;;;;0.00;0.00;;;;;;;;;;5073473;28;20434;-81
2022/10/01 04:37:29;;;;;;;0.00;0.00;;;;;;;;;;5057083;28;20536;-81
2022/10/01 04:39:55;;;;;;;0.00;0.00;;;;;;;;;;5073722;28;20044;-82
2022/10/01 04:42:22;;;;;;;0.00;0.00;;;;;;;;;;5073701;28;20044;-82
2022/10/01 04:44:48;;;;;;;0.00;0.00;;;;;;;;;;5073048;28;20048;-82
2022/10/01 04:47:14;;;;;;;0.00;0.00;;;;;;;;;;5073257;28;20124;-83
2022/10/01 04:49:40;;;;;;;0.00;0.00;;;;;;;;;;5073812;28;20153;-83
2022/10/01 04:52:06;;;;;;;0.00;0.00;;;;;;;;;;5073150;28;20205;-81
2022/10/01 04:54:32;;;;;;;0.00;0.00;;;;;;;;;;5073262;28;20488;-81
2022/10/01 04:56:58;;;;;;;0.00;0.00;;;;;;;;;;5073098;28;20120;-82
2022/10/01 04:59:24;;;;;;;0.00;0.00;;;;;;;;;;5073186;28;20095;-81
2022/10/01 05:01:50;;;;;;;0.00;0.00;;;;;;;;;;5072960;28;20142;-81
2022/10/01 05:04:17;;;;;;;0.00;0.00;;;;;;;;;;5073094;28;20041;-82
2022/10/01 05:06:43;;;;;;;0.00;0.00;;;;;;;;;;5074422;28;20149;-82
2022/10/01 05:09:09;;;;;;;0.00;0.00;;;;;;;;;;5073398;28;20496;-82
2022/10/01 05:11:36;;;;;;;0.00;0.00;;;;;;;;;;5056686;28;20102;-82
2022/10/01 05:14:02;;;;;;;0.00;0.00;;;;;;;;;;5072944;28;20040;-82
2022/10/01 05:16:28;;;;;;;0.00;0.00;;;;;;;;;;5073788;28;20538;-81
2022/10/01 05:18:54;;;;;;;0.00;0.00;;;;;;;;;;5072858;28;20037;-82
2022/10/01 05:21:20;;;;;;;0.00;0.00;;;;;;;;;;5072540;28;20072;-81
2022/10/01 05:23:46;;;;;;;0.00;0.00;;;;;;;;;;5072067;28;20032;-82
2022/10/01 05:26:12;;;;;;;0.00;0.00;;;;;;;;;;5072578;28;20144;-81
2022/10/01 05:28:43;;;;;;;0.00;0.00;;;;;;;;;;5072651;28;20460;-82
2022/10/01 05:31:09;;;;;;;0.00;0.00;;;;;;;;;;5072380;28;20392;-83
2022/10/01 05:33:35;;;;;;;0.00;0.00;;;;;;;;;;5072563;28;20112;-82
2022/10/01 05:36:04;;;;;;;0.00;0.00;;;;;;;;;;5072482;28;20085;-81
2022/10/01 05:38:30;;;;;;;0.00;0.00;;;;;;;;;;5072592;28;20162;-82
2022/10/01 05:40:56;;;;;;;0.00;0.00;;;;;;;;;;5072164;28;20151;-82
2022/10/01 05:43:25;;;;;;;0.00;0.00;;;;;;;;;;5072374;28;20138;-83
2022/10/01 05:45:51;;;;;;;0.00;0.00;;;;;;;;;;5055597;28;20117;-83
2022/10/01 05:48:17;;;;;;;0.00;0.00;;;;;;;;;;5073561;28;20037;-83
2022/10/01 05:50:43;;;;;;;0.00;0.00;;;;;;;;;;5055594;28;20053;-83
2022/10/01 05:53:11;;;;;;;0.00;0.00;;;;;;;;;;5073335;28;20040;-83
2022/10/01 05:55:37;;;;;;;0.00;0.00;;;;;;;;;;5071754;28;20036;-83
2022/10/01 05:58:04;;;;;;;0.00;0.00;;;;;;;;;;5055088;28;20491;-83
2022/10/01 06:00:31;;;;;;;0.00;0.00;;;;;;;;;;5072198;28;20119;-82
2022/10/01 06:02:57;;;;;;;0.00;0.00;;;;;;;;;;5071727;28;20036;-81
2022/10/01 06:05:23;;;;;;;0.00;0.00;;;;;;;;;;5071833;28;20037;-82
2022/10/01 06:07:50;;;;;;;0.00;0.00;;;;;;;;;;5071665;28;20090;-82
2022/10/01 06:10:17;;;;;;;0.00;0.00;;;;;;;;;;5071780;28;20098;-82
2022/10/01 06:12:43;;;;;;;0.00;0.00;;;;;;;;;;5054986;28;20120;-82
2022/10/01 06:15:10;;;;;;;0.00;0.00;;;;;;;;;;5071673;28;20048;-83
2022/10/01 06:17:42;;;;;;;0.00;0.00;;;;;;;;;;5071577;28;20108;-82
2022/10/01 06:20:08;;;;;;;0.00;0.00;;;;;;;;;;5071786;28;20183;-82
2022/10/01 06:22:34;;;;;;;0.00;0.00;;;;;;;;;;5071507;28;20075;-82
2022/10/01 06:25:00;;;;;;;0.00;0.00;;;;;;;;;;5071570;28;20145;-82
2022/10/01 06:27:26;;;;;;;0.00;0.00;;;;;;;;;;5072861;28;20036;-83
2022/10/01 06:29:52;;;;;;;0.00;0.00;;;;;;;;;;5056229;28;20049;-84
2022/10/01 06:32:19;;;;;;;0.00;0.00;;;;;;;;;;5052168;28;20064;-83
2022/10/01 06:34:45;;;;;;;0.00;0.00;;;;;;;;;;5051056;28;20041;-90
2022/10/01 06:37:11;;;;;;;0.00;0.00;;;;;;;;;;5033829;28;20048;-83
2022/10/01 06:39:37;;;;;;;0.00;0.00;;;;;;;;;;5051068;28;20131;-82
2022/10/01 06:42:03;;;;;;;0.00;0.00;;;;;;;;;;5050820;28;20144;-82
2022/10/01 06:44:29;;;;;;;0.00;0.00;;;;;;;;;;5050645;28;20107;-82
2022/10/01 06:46:55;;;;;;;0.00;0.00;;;;;;;;;;5050759;28;20467;-82
2022/10/01 06:49:21;;;;;;;0.00;0.00;;;;;;;;;;5051041;28;20408;-83
2022/10/01 06:54:35;;;;;;;0.00;0.00;;;;;;;;;;5070959;28;20048;-85
2022/10/01 06:57:01;;;;;;;0.00;0.00;;;;;;;;;;5058067;28;20051;-89
2022/10/01 06:59:29;;;;;;;0.00;0.00;;;;;;;;;;5035279;28;20041;-85
2022/10/01 07:01:55;;;;;;;0.00;0.00;;;;;;;;;;5060009;28;20039;-89
2022/10/01 07:04:21;;;;;;;0.00;0.00;;;;;;;;;;5054413;28;20037;-82
2022/10/01 07:06:47;;;;;;;0.00;0.00;;;;;;;;;;5071066;28;20472;-82
2022/10/01 07:09:13;;;;;;;0.00;0.00;;;;;;;;;;5054386;28;20182;-82
2022/10/01 07:11:40;;;;;;;0.00;0.00;;;;;;;;;;5070497;28;20055;-82
2022/10/01 07:14:06;;;;;;;0.00;0.00;;;;;;;;;;5070905;28;20399;-83
2022/10/01 07:16:33;;;;;;;0.00;0.00;;;;;;;;;;5070597;28;20052;-83
2022/10/01 07:18:59;;;;;;;0.00;0.00;;;;;;;;;;5071353;28;20036;-83
2022/10/01 07:21:25;;;;;;;0.00;0.00;;;;;;;;;;5072102;28;20496;-80
2022/10/01 07:23:51;;;;;;;0.00;0.00;;;;;;;;;;5070896;28;20033;-83
2022/10/01 07:26:17;;;;;;;0.00;0.00;;;;;;;;;;5071173;28;20429;-82
2022/10/01 07:28:43;;;;;;;0.38;0.10;;;;;;;;;;5053924;28;20131;-83
2022/10/01 07:31:10;;;;;;;0.00;0.00;;;;;;;;;;5070919;28;20064;-83
2022/10/01 07:33:39;;;;;;;0.00;0.00;;;;;;;;;;5070562;28;20053;-83
2022/10/01 07:36:07;;;;;;;0.00;0.00;;;;;;;;;;5071171;28;20090;-82
2022/10/01 07:38:33;;;;;;;0.00;0.00;;;;;;;;;;5070681;28;20036;-82
2022/10/01 07:41:01;;;;;;;0.00;0.00;;;;;;;;;;5071125;28;20036;-82
2022/10/01 07:43:27;;;;;;;0.00;0.00;;;;;;;;;;5053703;28;20045;-82
2022/10/01 07:45:56;;;;;;;0.00;0.00;;;;;;;;;;5054149;28;20481;-83
2022/10/01 07:48:22;;;;;;;0.00;0.00;;;;;;;;;;5073862;28;20485;-82
2022/10/01 07:50:48;;;;;;;0.00;0.00;;;;;;;;;;5074621;28;20128;-82
2022/10/01 07:53:14;;;;;;;0.00;0.00;;;;;;;;;;5075750;28;20044;-82
2022/10/01 07:55:40;;;;;;;0.00;0.00;;;;;;;;;;5074267;28;20029;-82
2022/10/01 07:58:06;;;;;;;0.00;0.00;;;;;;;;;;5074243;28;20533;-82
2022/10/01 08:00:33;;;;;;;0.00;0.00;;;;;;;;;;5074504;28;20040;-83
2022/10/01 08:02:59;;;;;;;0.00;0.00;;;;;;;;;;5057479;28;20353;-80
2022/10/01 08:05:27;;;;;;;0.00;0.00;;;;;;;;;;5074291;28;20047;-81
2022/10/01 08:07:57;;;;;;;0.00;0.00;;;;;;;;;;5074064;28;20049;-81
2022/10/01 08:10:23;;;;;;;0.00;0.00;;;;;;;;;;5075684;28;20044;-81
2022/10/01 08:12:49;;;;;;;0.00;0.00;;;;;;;;;;5073943;28;20047;-82
2022/10/01 08:15:16;;;;;;;0.00;0.00;;;;;;;;;;5073979;28;20552;-82
2022/10/01 08:17:43;;;;;;;0.00;0.00;;;;;;;;;;5075128;28;20131;-83
2022/10/01 08:20:10;;;;;;;0.00;0.00;;;;;;;;;;5057349;28;20129;-81
2022/10/01 08:22:36;;;;;;;0.00;0.00;;;;;;;;;;5072680;28;20332;-83
2022/10/01 08:25:03;;;;;;;0.00;0.00;;;;;;;;;;5073955;28;20102;-82
2022/10/01 08:27:29;;;;;;;0.00;0.00;;;;;;;;;;5075326;28;20040;-80
2022/10/01 08:29:55;;;;;;;0.00;0.00;;;;;;;;;;5073892;28;20093;-84
2022/10/01 08:32:22;;;;;;;0.00;0.00;;;;;;;;;;5056982;28;20396;-84
2022/10/01 08:34:48;;;;;;;0.00;0.00;;;;;;;;;;5056762;28;20041;-84
2022/10/01 08:37:15;;;;;;;0.00;0.00;;;;;;;;;;5056971;28;20041;-84
2022/10/01 08:39:41;;;;;;;0.00;0.00;;;;;;;;;;5056912;28;20044;-84
2022/10/01 08:42:10;;;;;;;0.00;0.00;;;;;;;;;;5073567;28;20044;-84
2022/10/01 08:44:40;;;;;;;0.00;0.00;;;;;;;;;;5073048;28;20048;-84
2022/10/01 08:47:26;;;;;;;0.00;0.00;;;;;;;;;;5073840;28;20041;-85
2022/10/01 08:49:54;;;;;;;0.00;0.00;;;;;;;;;;5082906;28;20048;-84
2022/10/01 08:52:34;;;;;;;0.00;0.00;;;;;;;;;;5073384;28;20040;-84
2022/10/01 08:55:06;;;;;;;0.00;0.00;;;;;;;;;;5073253;28;20054;-84
2022/10/01 08:57:45;;;;;;;0.00;0.00;;;;;;;;;;5073100;28;20037;-84
2022/10/01 09:00:14;;;;;;;0.00;0.00;;;;;;;;;;5055861;28;20041;-84
2022/10/01 09:02:42;;;;;;;0.00;0.00;;;;;;;;;;5056015;28;20119;-84
2022/10/01 09:05:17;;;;;;;0.00;0.00;;;;;;;;;;5072877;28;20059;-84
2022/10/01 09:07:49;;;;;;;0.00;0.00;;;;;;;;;;5072868;28;20044;-84
2022/10/01 09:10:18;;;;;;;0.00;0.00;;;;;;;;;;5073162;28;20036;-83
2022/10/01 09:12:50;;;;;;;0.00;0.00;;;;;;;;;;5073128;28;20047;-84
2022/10/01 09:15:24;;;;;;;0.00;0.00;;;;;;;;;;5056436;28;20077;-84
2022/10/01 09:17:50;;;;;;;0.00;0.00;;;;;;;;;;5072714;28;20329;-84
2022/10/01 09:20:26;;;;;;;0.00;0.00;;;;;;;;;;5072826;28;20104;-84
2022/10/01 09:23:14;;;;;;;0.00;0.00;;;;;;;;;;5056227;28;20123;-85
2022/10/01 09:25:42;;;;;;;0.00;0.00;;;;;;;;;;5065589;28;20071;-85
2022/10/01 09:28:11;;;;;;;0.00;0.00;;;;;;;;;;5072574;28;20434;-86
2022/10/01 09:30:41;;;;;;;0.00;0.00;;;;;;;;;;5072497;28;20117;-84
2022/10/01 09:33:14;;;;;;;0.00;0.00;;;;;;;;;;5072572;28;20124;-85
2022/10/01 09:35:42;;;;;;;0.00;0.00;;;;;;;;;;5055779;28;20033;-84
2022/10/01 09:38:09;;;;;;;0.00;0.00;;;;;;;;;;5055499;28;20080;-84
2022/10/01 09:40:41;;;;;;;0.00;0.00;;;;;;;;;;5055720;28;20032;-83
2022/10/01 09:43:09;;;;;;;0.00;0.00;;;;;;;;;;5055331;28;20032;-83
2022/10/01 09:45:36;;;;;;;0.00;0.00;;;;;;;;;;5054246;28;20611;-84
2022/10/01 09:48:25;;;;;;;0.00;0.00;;;;;;;;;;5072160;28;20503;-84
2022/10/01 09:50:57;;;;;;;0.00;0.00;;;;;;;;;;5072374;28;20040;-84
2022/10/01 09:53:26;;;;;;;0.00;0.00;;;;;;;;;;5071837;28;20051;-84
2022/10/01 09:55:54;;;;;;;0.00;0.00;;;;;;;;;;5056096;28;20051;-86
2022/10/01 09:58:22;;;;;;;0.00;0.00;;;;;;;;;;5073305;28;20036;-84
2022/10/01 10:00:50;;;;;;;0.00;0.00;;;;;;;;;;5071884;28;20036;-84
2022/10/01 10:03:24;;;;;;;0.00;0.00;;;;;;;;;;5055146;28;20047;-85
2022/10/01 10:05:50;;;;;;;0.00;0.00;;;;;;;;;;5072040;28;20048;-85
2022/10/01 10:08:23;;;;;;;0.00;0.00;;;;;;;;;;5072473;28;20032;-84
2022/10/01 10:11:09;;;;;;;0.00;0.00;;;;;;;;;;5054995;28;20039;-84
2022/10/01 10:13:38;;;;;;;0.00;0.00;;;;;;;;;;5071567;28;20032;-84
2022/10/01 10:16:23;;;;;;;0.00;0.00;;;;;;;;;;5054806;28;20040;-84
2022/10/01 10:18:51;;;;;;;0.00;0.00;;;;;;;;;;5071882;28;20123;-85
2022/10/01 10:21:20;;;;;;;0.00;0.00;;;;;;;;;;5055502;28;20174;-85
2022/10/01 10:23:50;;;;;;;0.47;0.00;;;;;;;;;;5071456;28;20051;-85
2022/10/01 10:26:28;;;;;;;0.00;0.00;;;;;;;;;;5070786;28;20047;-84
2022/10/01 10:28:57;;;;;;;0.00;0.00;;;;;;;;;;5056023;28;20127;-85
2022/10/01 10:31:25;;;;;;;0.00;0.00;;;;;;;;;;5073440;28;20036;-85
2022/10/01 10:34:00;;;;;;;0.00;0.00;;;;;;;;;;5054621;28;20040;-83
2022/10/01 10:36:29;;;;;;;0.00;0.00;;;;;;;;;;5071577;28;20123;-84
2022/10/01 10:38:56;;;;;;;0.00;0.00;;;;;;;;;;5054555;28;20063;-82
2022/10/01 10:41:25;;;;;;;0.00;0.00;;;;;;;;;;5071458;28;20039;-82
2022/10/01 10:43:52;;;;;;;0.00;0.00;;;;;;;;;;5054262;28;20145;-82
2022/10/01 10:46:22;;;;;;;0.00;0.00;;;;;;;;;;5054734;28;20048;-82
2022/10/01 10:48:53;;;;;;;0.00;0.00;;;;;;;;;;5071192;28;20076;-83
2022/10/01 10:51:19;;;;;;;0.00;0.00;;;;;;;;;;5072099;28;20063;-81
2022/10/01 10:53:46;;;;;;;0.00;0.00;;;;;;;;;;5071245;28;20504;-83
2022/10/01 10:56:22;;;;;;;0.00;0.00;;;;;;;;;;5071308;28;20094;-84
2022/10/01 10:58:49;;;;;;;0.00;0.00;;;;;;;;;;5054616;28;20032;-85
2022/10/01 11:01:18;;;;;;;0.00;0.00;;;;;;;;;;5071504;28;20032;-85
2022/10/01 11:03:47;;;;;;;0.00;0.00;;;;;;;;;;5054633;28;20036;-83
2022/10/01 11:06:14;;;;;;;0.00;0.00;;;;;;;;;;5071132;28;20499;-84
2022/10/01 11:08:41;;;;;;;0.00;0.00;;;;;;;;;;5071319;28;20119;-81
2022/10/01 11:11:19;;;;;;;0.00;0.00;;;;;;;;;;5072627;28;20120;-85
2022/10/01 11:14:08;;;;;;;0.00;0.00;;;;;;;;;;5071634;28;20053;-83
2022/10/01 11:16:45;;;;;;;0.00;0.00;;;;;;;;;;5054205;28;20048;-85
2022/10/01 11:19:20;;;;;;;0.05;0.05;;;;;;;;;;5069891;28;20098;-84
2022/10/01 11:21:52;;;;;;;0.00;0.00;;;;;;;;;;5071948;28;20571;-83
2022/10/01 11:24:31;;;;;;;0.00;0.00;;;;;;;;;;5058064;28;20044;-85
2022/10/01 11:27:05;;;;;;;0.00;0.00;;;;;;;;;;5075323;28;20118;-85
2022/10/01 11:29:34;;;;;;;0.00;0.00;;;;;;;;;;5074950;28;20040;-85
2022/10/01 11:32:18;;;;;;;0.00;0.00;;;;;;;;;;5058178;28;20037;-85
2022/10/01 11:34:47;;;;;;;0.00;0.00;;;;;;;;;;5074608;28;20040;-85
2022/10/01 11:37:13;;;;;;;0.00;0.00;;;;;;;;;;5057913;28;20045;-85
2022/10/01 11:39:41;;;;;;;0.00;0.00;;;;;;;;;;5074585;28;20085;-86
2022/10/01 11:42:10;;;;;;;0.00;0.00;;;;;;;;;;5074990;28;20036;-85
2022/10/01 11:44:41;;;;;;;0.00;0.00;;;;;;;;;;5074227;28;20548;-85
2022/10/01 11:47:25;;;;;;;0.00;0.00;;;;;;;;;;5074662;28;20202;-85
2022/10/01 11:50:10;;;;;;;0.00;0.00;;;;;;;;;;5073165;28;20075;-84
2022/10/01 11:52:48;;;;;;;0.00;0.00;;;;;;;;;;5074728;28;20048;-84
2022/10/01 12:01:05;;;;;;;0.00;0.00;;;;;;;;;;5074269;28;20037;-87
2022/10/01 12:03:36;;;;;;;0.00;0.00;;;;;;;;;;5074513;28;20087;-85
2022/10/01 12:06:08;;;;;;;0.00;0.00;;;;;;;;;;5057618;28;20037;-85
2022/10/01 12:08:36;;;;;;;0.00;0.00;;;;;;;;;;5074450;28;20114;-86
2022/10/01 12:11:20;;;;;;;0.00;0.00;;;;;;;;;;5057373;28;20097;-86
2022/10/01 12:14:02;;;;;;;0.00;0.00;;;;;;;;;;5057704;28;20476;-86
2022/10/01 12:16:33;;;;;;;0.00;0.00;;;;;;;;;;5073814;28;20438;-85
2022/10/01 12:19:05;;;;;;;0.00;0.00;;;;;;;;;;5057518;28;20044;-83
2022/10/01 12:21:38;;;;;;;0.00;0.00;;;;;;;;;;5074338;28;20040;-87
2022/10/01 12:24:24;;;;;;;0.00;0.00;;;;;;;;;;5057380;28;20043;-87
2022/10/01 12:26:50;;;;;;;;;;;;;;;;;;5074368;28;20127;-86
2022/10/01 12:29:19;;;;;;;0.00;0.00;;;;;;;;;;5073888;28;19963;-85
2022/10/01 12:31:48;;;;;;;0.00;0.00;;;;;;;;;;5057025;28;20047;-87
2022/10/01 12:34:25;;;;;;;0.00;0.00;;;;;;;;;;5058376;28;20047;-87
2022/10/01 12:36:51;;;;;;;0.00;0.00;;;;;;;;;;5073656;28;20377;-87
2022/10/01 12:39:29;;;;;;;0.00;0.00;;;;;;;;;;5056078;28;20090;-86
2022/10/01 12:42:13;;;;;;;0.00;0.00;;;;;;;;;;5057016;28;20037;-87
2022/10/01 12:44:59;;;;;;;0.00;0.00;;;;;;;;;;5073651;28;20108;-80
2022/10/01 12:47:26;;;;;;;0.00;0.00;;;;;;;;;;5073907;28;20041;-87
2022/10/01 12:49:58;;;;;;;0.00;0.00;;;;;;;;;;5056820;28;20076;-86
2022/10/01 12:52:32;;;;;;;0.00;0.00;;;;;;;;;;5073313;28;20047;-86
2022/10/01 12:55:16;;;;;;;0.00;0.00;;;;;;;;;;5056702;28;20118;-86
2022/10/01 12:57:55;;;;;;;0.00;0.00;;;;;;;;;;5073497;28;20446;-87
2022/10/01 13:00:23;;;;;;;0.00;0.00;;;;;;;;;;5073409;28;20066;-86
2022/10/01 13:03:11;;;;;;;0.00;0.00;;;;;;;;;;5056898;28;20087;-86
2022/10/01 13:05:51;;;;;;;0.00;0.00;;;;;;;;;;5073345;28;20058;-86
2022/10/01 13:08:17;;;;;;;0.00;0.00;;;;;;;;;;5073279;28;20082;-86
2022/10/01 13:10:49;;;;;;;0.00;0.00;;;;;;;;;;5072920;28;20048;-86
2022/10/01 13:13:15;;;;;;;0.00;0.00;;;;;;;;;;5073096;28;20451;-86
2022/10/01 13:15:45;;;;;;;0.00;0.00;;;;;;;;;;5056054;28;20040;-86
2022/10/01 13:18:12;;;;;;;0.00;0.00;;;;;;;;;;5072994;28;20071;-86
2022/10/01 13:20:43;;;;;;;0.00;0.00;;;;;;;;;;5072817;28;20040;-86
2022/10/01 13:23:17;;;;;;;0.00;0.00;;;;;;;;;;5056279;28;20068;-86
2022/10/01 13:26:02;;;;;;;0.00;0.00;;;;;;;;;;5055741;28;20040;-86
2022/10/01 13:28:34;;;;;;;0.00;0.00;;;;;;;;;;5072805;28;20041;-86
2022/10/01 13:31:01;;;;;;;0.00;0.00;;;;;;;;;;5072598;28;20115;-85
2022/10/01 13:33:31;;;;;;;0.00;0.00;;;;;;;;;;5055368;28;20400;-85
2022/10/01 13:36:04;;;;;;;0.00;0.00;;;;;;;;;;5072227;28;20040;-85
2022/10/01 13:38:41;;;;;;;0.00;0.00;;;;;;;;;;5055938;28;20040;-85
2022/10/01 13:41:16;;;;;;;0.00;0.00;;;;;;;;;;5072370;28;20436;-85
2022/10/01 13:43:46;;;;;;;0.00;0.00;;;;;;;;;;5072404;28;20512;-86
2022/10/01 13:46:12;;;;;;;0.00;0.00;;;;;;;;;;5071695;28;20449;-86
2022/10/01 13:48:44;;;;;;;0.00;0.00;;;;;;;;;;5055424;28;20036;-86
2022/10/01 13:51:12;;;;;;;0.00;0.00;;;;;;;;;;5072152;28;20040;-86
2022/10/01 13:53:41;;;;;;;0.00;0.00;;;;;;;;;;5055441;28;20404;-86
2022/10/01 13:56:10;;;;;;;0.00;0.00;;;;;;;;;;5055446;28;20051;-86
2022/10/01 13:58:45;;;;;;;0.00;0.00;;;;;;;;;;5072022;28;20093;-87
2022/10/01 14:01:17;;;;;;;0.00;0.00;;;;;;;;;;5072063;28;20090;-84
2022/10/01 14:03:52;;;;;;;0.00;0.00;;;;;;;;;;5071958;28;20174;-86
2022/10/01 14:06:23;;;;;;;0.00;0.00;;;;;;;;;;5055412;28;20040;-86
2022/10/01 14:08:59;;;;;;;0.00;0.00;;;;;;;;;;5055854;28;20066;-86
2022/10/01 14:17:06;;;;;;;0.00;0.00;;;;;;;;;;5071459;28;20488;-86
2022/10/01 14:19:35;;;;;;;0.00;0.00;;;;;;;;;;5055117;28;20468;-86
2022/10/01 14:22:08;;;;;;;0.00;0.00;;;;;;;;;;5071527;28;20491;-86
2022/10/01 14:24:53;;;;;;;0.00;0.00;;;;;;;;;;5071632;28;20089;-85
2022/10/01 14:27:25;;;;;;;0.00;0.00;;;;;;;;;;5071747;28;20514;-90
2022/10/01 14:29:58;;;;;;;0.00;0.00;;;;;;;;;;5055627;28;20092;-86
2022/10/01 14:32:40;;;;;;;0.00;0.00;;;;;;;;;;5073129;28;20054;-86
2022/10/01 14:35:22;;;;;;;0.00;0.00;;;;;;;;;;5071943;28;20040;-86
2022/10/01 14:37:49;;;;;;;0.00;0.00;;;;;;;;;;5056288;28;20045;-85
2022/10/01 14:40:17;;;;;;;0.00;0.00;;;;;;;;;;5073137;28;20040;-85
2022/10/01 14:42:43;;;;;;;0.00;0.00;;;;;;;;;;5072588;28;20047;-86
2022/10/01 14:45:18;;;;;;;0.00;0.00;;;;;;;;;;5073337;28;20044;-86
2022/10/01 14:47:47;;;;;;;0.00;0.00;;;;;;;;;;5072983;28;20083;-85
2022/10/01 14:50:18;;;;;;;0.00;0.00;;;;;;;;;;5054741;28;20127;-85
2022/10/01 14:52:46;;;;;;;0.00;0.00;;;;;;;;;;5071355;28;20063;-84
2022/10/01 14:55:13;;;;;;;0.00;0.00;;;;;;;;;;5071300;28;20067;-84
2022/10/01 14:57:48;;;;;;;0.00;0.00;;;;;;;;;;5070226;28;20048;-84
2022/10/01 15:00:19;;;;;;;0.00;0.00;;;;;;;;;;5054542;28;20036;-85
2022/10/01 15:02:50;;;;;;;0.00;0.00;;;;;;;;;;5071380;28;20040;-85
2022/10/01 15:05:24;;;;;;;0.20;0.15;;;;;;;;;;5054481;28;20086;-85
2022/10/01 15:07:50;;;;;;;0.00;0.00;;;;;;;;;;5054356;28;20051;-85
2022/10/01 15:10:18;;;;;;;0.00;0.00;;;;;;;;;;5054637;28;20064;-86
2022/10/01 15:12:44;;;;;;;0.00;0.00;;;;;;;;;;5054389;28;20040;-85